Skip to main content.
Our real time weather data display below is updated continuously via our 24/7 live data feed.
 TIME   TEMPERATURE   WINDSPEED   DIRECTION   HUMIDITY   BAROMETER   RAINFALL 
1:50 15.0°C (59.0°F) 24.1 kmh (15.0 mph) NW 62% 1010.8hPa (29.85 inHg) 0.0mm (0.00 in.)
12:46 15.0°C (59.0 °F) 22.2 kmh (13.8 mph) N 62% 1010.8hPa (29.85 inHg) 0.0mm (0.00 in.)
11:41 15.0°C (59.0 °F) 20.4 kmh (12.7 mph) N 62% 1011.9hPa (29.88 inHg) 0.0mm (0.00 in.)
10:41 14.0°C (57.2 °F) 18.5 kmh (11.5 mph) N 71% 1010.8hPa (29.85 inHg) 0.0mm (0.00 in.)
9:41 14.0°C (57.2 °F) 16.7 kmh (10.4 mph) N 76% 1010.8hPa (29.85 inHg) 0.0mm (0.00 in.)
8:41 12.0°C (53.6 °F) 11.1 kmh (6.9 mph) N 81% 1010.2hPa (29.83 inHg) 0.0mm (0.00 in.)
7:41 12.0°C (53.6 °F) 16.7 kmh (10.4 mph) N 81% 1010.2hPa (29.83 inHg) 0.0mm (0.00 in.)
6:41 12.0°C (53.6 °F) 13.0 kmh (8.1 mph) N 87% 1010.2hPa (29.83 inHg) 0.0mm (0.00 in.)
5:41 11.0°C (51.8 °F) 9.3 kmh (5.8 mph) N 87% 1009.1hPa (29.80 inHg) 0.0mm (0.00 in.)
4:33 12.0°C (53.6 °F) 11.1 kmh (6.9 mph) N 93% 1009.1hPa (29.80 inHg) 0.0mm (0.00 in.)
3:33 14.0°C (57.2 °F) 13.0 kmh (8.1 mph) N 87% 1009.1hPa (29.80 inHg) 0.0mm (0.00 in.)
2:33 14.0°C (57.2 °F) 13.0 kmh (8.1 mph) N 87% 1010.2hPa (29.83 inHg) 0.0mm (0.00 in.)
1:33 14.0°C (57.2 °F) 18.5 kmh (11.5 mph) N 82% 1010.2hPa (29.83 inHg) 0.0mm (0.00 in.)
12:33 13.0°C (55.4 °F) 16.7 kmh (10.4 mph) N 81% 1010.2hPa (29.83 inHg) 0.0mm (0.00 in.)
11:32 13.0°C (55.4 °F) 22.2 kmh (13.8 mph) N 81% 1010.2hPa (29.83 inHg) 0.0mm (0.00 in.)
10:27 13.0°C (55.4 °F) 18.5 kmh (11.5 mph) N 76% 1009.1hPa (29.80 inHg) 0.0mm (0.00 in.)
9:21 14.0°C (57.2 °F) 16.7 kmh (10.4 mph) N 76% 1010.2hPa (29.83 inHg) 0.0mm (0.00 in.)
8:21 14.0°C (57.2 °F) 13.0 kmh (8.1 mph) N 87% 1010.2hPa (29.83 inHg) 0.0mm (0.00 in.)
7:21 14.0°C (57.2 °F) 14.8 kmh (9.2 mph) N 82% 1010.2hPa (29.83 inHg) 0.0mm (0.00 in.)
6:21 15.0°C (59.0 °F) 14.8 kmh (9.2 mph) N 76% 1010.2hPa (29.83 inHg) 0.0mm (0.00 in.)
5:21 15.0°C (59.0 °F) 18.5 kmh (11.5 mph) N 76% 1010.2hPa (29.83 inHg) 0.0mm (0.00 in.)
4:21 15.0°C (59.0 °F) 14.8 kmh (9.2 mph) N 76% 1010.2hPa (29.83 inHg) 0.0mm (0.00 in.)
3:21 16.0°C (60.8 °F) 16.7 kmh (10.4 mph) N 72% 1010.2hPa (29.83 inHg) 0.0mm (0.00 in.)
2:21 16.0°C (60.8 °F) 16.7 kmh (10.4 mph) N 67% 1010.8hPa (29.85 inHg) 0.0mm (0.00 in.)